Airfield :
LOGIN :

Register | Disclaimer

   EN    FR    IT 

 










Legend :    VFR   Marginal VFR   IFR   Intensive IFR   Very Intensive IFR
Visi :
Ceiling :
>= 8 km
>= 3000ft
5 to 8 km
1000 to 3000 ft
1500m to 5 km
500 to 1000 ft
800 to 1500m
200 to 500 ft
< 800m
< 200 ft
Symbols :   Thunderstorms  Fog  Heavy snow  Heavy precipitations  Wind > 20 kt
SIGMETs :     Misc.  Thunderstorms  Icing  Turbulence  Mountain Waves  Volcanic Ashes






- Airport Elevation : 56 ft
- IATA code : ODE


EKOD - Odense

CURRENT METAR :
  • 281150Z 12017G27KT 9999 -SHRA FEW010 BKN045 06/05 Q1014

EXPIRED METARs :
  • 281050Z 13014KT 9999 -SHRA FEW010 BKN045 05/05 Q1014
  • 281020Z 13015KT 9999 -SHRA FEW010 BKN049 05/05 Q1014

TAF TAF EKOD
Valid from the 28 at 12:00 until the 28 at 16:00 UTC


281154Z 2812/2816 12015KT 9000 -RA SCT010 BKN045
TEMPO 2812/2816 13015G25KT BKN010



MET'MAP, your aeronautical weather chart ! - Copyright ORBIFLY December 2007 - Disclaimer

ORBIFLY MET'MAP TEAM :

Programming & Development : Alexandra Zaïnal
Original concept : Baudouin d'Aumeries
Technical & hardware support : Manuel Goepfert
Assistance : Marc-Olivier Méhu




SOURCES & CREDITS :

   NOAA